• Join FlightAware (Why Join?)
  • Login
  • US Flag 
Rudolph Flight #1: Arrived! 
08:56AM EST


 

Airport Tracker/Info


-or-


 

Live Flight TrackerFlight Track Log ✈ AWI3778 ✈ 26-Apr-2013 ✈ KBTV - KPHL

Flight Track Log - Related Links

Times and Time Zones

All times are in EDT time to prevent confusion due to time zone crossing. See the AWI3778 flight status page for this flight to view local times or setup timezone preferences in your user account.

Time Position Orientation Groundspeed Altitude Reporting Facility
EDT Latitude Longitude Course Direction KTS MPH feet Rate Location/Type
01:24PM 44.4542 -73.2572 216° Southwest 189 217 5,900  Level Boston Center
01:25PM 44.1733 -73.2574 196° South  Level FlightAware Approximate
01:25PM 44.3853 -73.2825 195° South 241 277 8,900  Level Boston Center
01:26PM 44.0758 -73.2964 196° South  Level FlightAware Approximate
01:26PM 44.3161 -73.3336 208° Southwest 264 304 11,200  Level Boston Center
01:27PM 43.9783 -73.3354 196° South  Level FlightAware Approximate
01:27PM 44.2386 -73.3933 209° Southwest 310 357 13,400  Level Boston Center
01:28PM 43.8807 -73.3738 195° South  Level FlightAware Approximate
01:28PM 44.1569 -73.4558 209° Southwest 338 389 15,500  Level Boston Center
01:29PM 44.0728 -73.5236 210° Southwest 350 403 17,400 1,560 Climbing Boston Center
01:30PM 43.9825 -73.5942 209° Southwest 356 410 18,700 1,500 Climbing Boston Center
01:31PM 43.8922 -73.6644 209° Southwest 365 420 20,400 1,560 Climbing Boston Center
01:32PM 43.8061 -73.7317 209° Southwest 386 444 21,900 1,440 Climbing Boston Center
01:33PM 43.7031 -73.8128 210° Southwest 391 450 23,300 1,260 Climbing Boston Center
01:34PM 43.6189 -73.8769 209° Southwest 391 450 24,500 960 Climbing Boston Center
01:35PM 43.5178 -73.9519 208° Southwest 396 456 25,300 720 Climbing Boston Center
01:36PM 43.4189 -74.0264 209° Southwest 401 461 26,000 300 Climbing Boston Center
01:37PM 43.3050 -74.1178 210° Southwest 415 478 26,000  Level Boston Center
01:38PM 43.1997 -74.2003 210° Southwest 434 499 26,000  Level Boston Center
01:39PM 43.0919 -74.2797 208° Southwest 440 506 26,000  Level Boston Center
01:40PM 42.9886 -74.3561 208° Southwest 440 506 26,000  Level Boston Center
01:41PM 42.8808 -74.4406 210° Southwest 440 506 26,000  Level Boston Center
01:42PM 42.7775 -74.5192 209° Southwest 440 506 26,000  Level Boston Center
01:43PM 42.6717 -74.5975 209° Southwest 440 506 26,000  Level Boston Center
01:44PM 42.5681 -74.6728 208° Southwest 440 506 26,000  Level Boston Center
01:45PM 42.4622 -74.7536 209° Southwest 440 506 26,000  Level Boston Center
01:46PM 42.3544 -74.8283 207° Southwest 440 506 26,000 -120 Level Boston Center
01:47PM 42.2506 -74.9056 209° Southwest 440 506 25,800 -1,500 Descending Boston Center
01:49PM 42.0819 -75.0378 210° Southwest 422 486 21,800 -2,220 Descending New York Center
01:50PM 41.9875 -75.1153 211° Southwest 411 473 19,600 -1,440 Descending New York Center
01:51PM 41.8972 -75.1903 212° Southwest 400 460 19,000 -900 Descending New York Center
01:52PM 41.7983 -75.2728 212° Southwest 393 452 17,900 -1,140 Descending New York Center
01:53PM 41.7103 -75.3444 211° Southwest 388 447 16,700 -1,440 Descending New York Center
01:54PM 41.6244 -75.4108 210° Southwest 374 430 15,100 -1,620 Descending New York Center
01:55PM 41.5492 -75.4719 211° Southwest 367 422 13,500 -1,500 Descending New York Center
01:56PM 41.4653 -75.5408 212° Southwest 362 417 12,100 -720 Descending New York Center
01:57PM 41.3769 -75.6094 210° Southwest 347 399 12,100 -60 Level New York Center
01:58PM 41.2994 -75.6700 210° Southwest 352 405 12,000  Descending New York Center
01:59PM 41.1986 -75.6903 189° South 336 387 12,100  Climbing New York Center
02:00PM 41.1136 -75.6869 178° South 336 387 12,000 -120 Descending New York Center
02:01PM 41.0156 -75.6881 180° South 346 398 11,900  Descending New York Center
02:02PM 40.9092 -75.6886 180° South 354 407 12,000  Climbing New York Center
02:03PM 40.8217 -75.6878 180° South 354 407 12,000 -60 Level New York Center
02:04PM 40.7219 -75.6861 179° South 359 413 11,900 -60 Descending New York Center
02:05PM 40.6114 -75.6836 179° South 364 419 11,900 -60 Level New York Center
02:06PM 40.5358 -75.5964 139° Southeast 341 392 11,800 -960 Descending New York Center
02:07PM 40.4836 -75.4944 124° Southeast 351 404 10,100 -1,200 Descending New York Center
02:08PM 40.4161 -75.4133 138° Southeast 344 396 9,500 -1,080 Descending New York Center
02:09PM 40.3344 -75.3669 157° South 293 337 8,000 -1,500 Descending New York Center
02:10PM 40.2653 -75.3244 155° Southeast 288 331 6,500 -1,080 Descending New York Center
02:11PM 40.2056 -75.3069 167° South 278 320 5,900 -360 Descending New York Center
02:12PM 40.1453 -75.3003 175° South 245 282 5,900  Level New York Center
02:13PM 40.1186 -75.2361 119° Southeast 188 216 5,900 60 Level New York Center
02:13PM 40.1167 -75.2000 94° East 214 246 6,000 60 Climbing Philadelphia TRACON
02:14PM 40.0833 -75.1333 123° Southeast 201 231 6,000 -240 Level Philadelphia TRACON
02:15PM 40.0500 -75.0833 131° Southeast 192 221 5,600 -840 Descending Philadelphia TRACON
02:16PM 40.0000 -75.0667 166° South 191 220 4,400 -1,200 Descending Philadelphia TRACON
02:17PM 39.9500 -75.0500 166° South 177 204 3,200 -1,200 Descending Philadelphia TRACON